sensor_id;sensor_type;location;lat;lon;timestamp;pressure;altitude;pressure_sealevel;temperature;humidity
57779;BME280;43608;49.486;9.640;2023-03-18T00:00:31;98219.28;;;6.43;82.13
57779;BME280;43608;49.486;9.640;2023-03-18T00:01:03;98199.09;;;6.37;82.19
57779;BME280;43608;49.486;9.640;2023-03-18T00:01:34;98225.41;;;6.43;82.30
57779;BME280;43608;49.486;9.640;2023-03-18T00:02:04;98227.19;;;6.46;82.52
57779;BME280;43608;49.486;9.640;2023-03-18T00:02:39;98228.97;;;6.45;82.48
57779;BME280;43608;49.486;9.640;2023-03-18T00:03:10;98211.34;;;6.32;82.50
57779;BME280;43608;49.486;9.640;2023-03-18T00:03:40;98232.44;;;6.43;82.54
57779;BME280;43608;49.486;9.640;2023-03-18T00:04:11;98213.13;;;6.35;82.57
57779;BME280;43608;49.486;9.640;2023-03-18T00:04:41;98200.75;;;6.23;82.55
57779;BME280;43608;49.486;9.640;2023-03-18T00:05:12;98200.75;;;6.23;82.46
57779;BME280;43608;49.486;9.640;2023-03-18T00:05:43;98219.25;;;6.32;82.39
57779;BME280;43608;49.486;9.640;2023-03-18T00:06:17;98224.50;;;6.35;82.58
57779;BME280;43608;49.486;9.640;2023-03-18T00:06:48;98213.94;;;6.29;82.65
57779;BME280;43608;49.486;9.640;2023-03-18T00:07:18;98225.38;;;6.34;82.43
57779;BME280;43608;49.486;9.640;2023-03-18T00:07:48;98229.78;;;6.34;82.80
57779;BME280;43608;49.486;9.640;2023-03-18T00:08:19;98230.66;;;6.33;82.62
57779;BME280;43608;49.486;9.640;2023-03-18T00:08:49;98213.03;;;6.21;82.78
57779;BME280;43608;49.486;9.640;2023-03-18T00:09:20;98206.88;;;6.16;82.77
57779;BME280;43608;49.486;9.640;2023-03-18T00:09:50;98229.75;;;6.29;82.83
57779;BME280;43608;49.486;9.640;2023-03-18T00:10:22;98236.75;;;6.28;83.00
57779;BME280;43608;49.486;9.640;2023-03-18T00:10:53;98228.81;;;6.22;83.02
57779;BME280;43608;49.486;9.640;2023-03-18T00:11:23;98222.69;;;6.23;82.88
57779;BME280;43608;49.486;9.640;2023-03-18T00:11:54;98213.91;;;6.15;83.09
57779;BME280;43608;49.486;9.640;2023-03-18T00:12:25;98221.78;;;6.20;82.73
57779;BME280;43608;49.486;9.640;2023-03-18T00:12:56;98222.66;;;6.16;82.78
57779;BME280;43608;49.486;9.640;2023-03-18T00:13:27;98234.09;;;6.24;82.87
57779;BME280;43608;49.486;9.640;2023-03-18T00:13:57;98223.53;;;6.15;83.08
57779;BME280;43608;49.486;9.640;2023-03-18T00:14:28;98242.00;;;6.22;83.05
57779;BME280;43608;49.486;9.640;2023-03-18T00:14:59;98233.19;;;6.17;83.14
57779;BME280;43608;49.486;9.640;2023-03-18T00:15:30;98245.47;;;6.20;83.17
57779;BME280;43608;49.486;9.640;2023-03-18T00:16:01;98250.75;;;6.20;83.14
57779;BME280;43608;49.486;9.640;2023-03-18T00:16:34;98247.25;;;6.19;83.32
57779;BME280;43608;49.486;9.640;2023-03-18T00:17:05;98246.34;;;6.16;83.09
57779;BME280;43608;49.486;9.640;2023-03-18T00:17:37;98249.84;;;6.18;83.36
57779;BME280;43608;49.486;9.640;2023-03-18T00:18:09;98256.88;;;6.17;83.36
57779;BME280;43608;49.486;9.640;2023-03-18T00:18:39;98239.31;;;6.10;83.15
57779;BME280;43608;49.486;9.640;2023-03-18T00:19:11;98255.09;;;6.15;83.49
57779;BME280;43608;49.486;9.640;2023-03-18T00:19:42;98251.56;;;6.11;83.27
57779;BME280;43608;49.486;9.640;2023-03-18T00:20:14;98218.13;;;5.94;83.18
57779;BME280;43608;49.486;9.640;2023-03-18T00:20:46;98233.00;;;5.95;83.31
57779;BME280;43608;49.486;9.640;2023-03-18T00:21:16;98249.78;;;6.07;83.37
57779;BME280;43608;49.486;9.640;2023-03-18T00:21:48;98256.81;;;6.09;83.47
57779;BME280;43608;49.486;9.640;2023-03-18T00:22:18;98213.66;;;5.87;83.36
57779;BME280;43608;49.486;9.640;2023-03-18T00:22:48;98257.72;;;6.10;83.36
57779;BME280;43608;49.486;9.640;2023-03-18T00:23:20;98242.75;;;6.03;83.54
57779;BME280;43608;49.486;9.640;2023-03-18T00:23:51;98262.09;;;6.11;83.32
57779;BME280;43608;49.486;9.640;2023-03-18T00:24:25;98256.81;;;6.09;83.44
57779;BME280;43608;49.486;9.640;2023-03-18T00:24:57;98240.97;;;5.99;83.63
57779;BME280;43608;49.486;9.640;2023-03-18T00:25:27;98260.34;;;6.10;83.40
57779;BME280;43608;49.486;9.640;2023-03-18T00:25:59;98257.72;;;6.10;83.36
57779;BME280;43608;49.486;9.640;2023-03-18T00:26:30;98225.09;;;5.89;83.50
57779;BME280;43608;49.486;9.640;2023-03-18T00:27:01;98253.28;;;6.06;83.48
57779;BME280;43608;49.486;9.640;2023-03-18T00:27:33;98252.41;;;6.08;83.54
57779;BME280;43608;49.486;9.640;2023-03-18T00:28:04;98257.69;;;6.08;83.44
57779;BME280;43608;49.486;9.640;2023-03-18T00:28:35;98255.03;;;6.07;83.41
57779;BME280;43608;49.486;9.640;2023-03-18T00:29:06;98262.06;;;6.08;83.41
57779;BME280;43608;49.486;9.640;2023-03-18T00:29:36;98240.94;;;5.97;83.44
57779;BME280;43608;49.486;9.640;2023-03-18T00:30:08;98260.31;;;6.07;83.53
57779;BME280;43608;49.486;9.640;2023-03-18T00:30:39;98261.22;;;6.07;83.27
57779;BME280;43608;49.486;9.640;2023-03-18T00:31:11;98236.50;;;5.93;83.23
57779;BME280;43608;49.486;9.640;2023-03-18T00:31:42;98247.13;;;6.04;83.16
57779;BME280;43608;49.486;9.640;2023-03-18T00:32:13;98242.66;;;5.93;83.32
57779;BME280;43608;49.486;9.640;2023-03-18T00:32:44;98257.69;;;6.07;83.50
57779;BME280;43608;49.486;9.640;2023-03-18T00:33:15;98257.69;;;6.07;83.33
57779;BME280;43608;49.486;9.640;2023-03-18T00:33:47;98248.88;;;6.00;83.47
57779;BME280;43608;49.486;9.640;2023-03-18T00:34:19;98246.19;;;5.97;83.22
57779;BME280;43608;49.486;9.640;2023-03-18T00:34:50;98261.16;;;6.04;83.24
57779;BME280;43608;49.486;9.640;2023-03-18T00:35:20;98239.13;;;5.91;83.21
57779;BME280;43608;49.486;9.640;2023-03-18T00:35:51;98263.78;;;6.04;83.19
57779;BME280;43608;49.486;9.640;2023-03-18T00:36:22;98261.16;;;6.01;83.42
57779;BME280;43608;49.486;9.640;2023-03-18T00:36:55;98247.03;;;5.94;83.30
57779;BME280;43608;49.486;9.640;2023-03-18T00:37:29;98256.75;;;6.03;83.16
57779;BME280;43608;49.486;9.640;2023-03-18T00:38:00;98263.78;;;6.03;83.03
57779;BME280;43608;49.486;9.640;2023-03-18T00:38:33;98264.66;;;6.02;83.08
57779;BME280;43608;49.486;9.640;2023-03-18T00:39:04;98248.78;;;5.92;83.10
57779;BME280;43608;49.486;9.640;2023-03-18T00:39:36;98247.91;;;5.92;83.13
57779;BME280;43608;49.486;9.640;2023-03-18T00:40:11;98254.94;;;5.94;83.05
57779;BME280;43608;49.486;9.640;2023-03-18T00:40:47;98250.53;;;5.93;83.19
57779;BME280;43608;49.486;9.640;2023-03-18T00:41:31;98259.38;;;5.99;83.36
57779;BME280;43608;49.486;9.640;2023-03-18T00:42:07;98239.97;;;5.84;83.13
57779;BME280;43608;49.486;9.640;2023-03-18T00:42:39;98231.16;;;5.79;83.41
57779;BME280;43608;49.486;9.640;2023-03-18T00:43:16;98247.84;;;5.87;82.95
57779;BME280;43608;49.486;9.640;2023-03-18T00:43:47;98246.09;;;5.83;83.19
57779;BME280;43608;49.486;9.640;2023-03-18T00:44:24;98244.34;;;5.85;83.44
57779;BME280;43608;49.486;9.640;2023-03-18T00:44:55;98259.28;;;5.91;83.22
57779;BME280;43608;49.486;9.640;2023-03-18T00:45:25;98257.50;;;5.87;83.38
57779;BME280;43608;49.486;9.640;2023-03-18T00:45:56;98267.19;;;5.95;83.52
57779;BME280;43608;49.486;9.640;2023-03-18T00:46:32;98269.81;;;5.95;83.62
57779;BME280;43608;49.486;9.640;2023-03-18T00:47:03;98266.34;;;5.95;83.18
57779;BME280;43608;49.486;9.640;2023-03-18T00:47:34;98265.47;;;5.94;83.28
57779;BME280;43608;49.486;9.640;2023-03-18T00:48:05;98263.69;;;5.93;83.30
57779;BME280;43608;49.486;9.640;2023-03-18T00:48:36;98217.88;;;5.65;83.48
57779;BME280;43608;49.486;9.640;2023-03-18T00:49:08;98258.38;;;5.89;83.50
57779;BME280;43608;49.486;9.640;2023-03-18T00:49:38;98257.53;;;5.88;83.56
57779;BME280;43608;49.486;9.640;2023-03-18T00:50:09;98268.06;;;5.93;83.73
57779;BME280;43608;49.486;9.640;2023-03-18T00:50:40;98265.41;;;5.88;83.34
57779;BME280;43608;49.486;9.640;2023-03-18T00:51:11;98266.31;;;5.92;83.58
57779;BME280;43608;49.486;9.640;2023-03-18T00:51:43;98223.16;;;5.65;83.62
57779;BME280;43608;49.486;9.640;2023-03-18T00:52:13;98253.97;;;5.83;83.99
57779;BME280;43608;49.486;9.640;2023-03-18T00:52:44;98275.94;;;5.91;83.69
57779;BME280;43608;49.486;9.640;2023-03-18T00:53:15;98258.38;;;5.84;83.64
57779;BME280;43608;49.486;9.640;2023-03-18T00:53:48;98263.59;;;5.81;83.65
57779;BME280;43608;49.486;9.640;2023-03-18T00:54:20;98247.78;;;5.76;83.67
57779;BME280;43608;49.486;9.640;2023-03-18T00:54:51;98268.03;;;5.88;83.63
57779;BME280;43608;49.486;9.640;2023-03-18T00:55:22;98267.19;;;5.89;83.66
57779;BME280;43608;49.486;9.640;2023-03-18T00:55:52;98246.88;;;5.76;83.66
57779;BME280;43608;49.486;9.640;2023-03-18T00:56:24;98271.53;;;5.90;83.69
57779;BME280;43608;49.486;9.640;2023-03-18T00:56:55;98274.16;;;5.89;83.69
57779;BME280;43608;49.486;9.640;2023-03-18T00:57:27;98268.00;;;5.84;83.74
57779;BME280;43608;49.486;9.640;2023-03-18T00:57:58;98268.03;;;5.88;83.58
57779;BME280;43608;49.486;9.640;2023-03-18T00:58:28;98246.88;;;5.76;83.98
57779;BME280;43608;49.486;9.640;2023-03-18T00:58:59;98259.22;;;5.80;83.56
57779;BME280;43608;49.486;9.640;2023-03-18T00:59:29;98266.25;;;5.84;83.66
57779;BME280;43608;49.486;9.640;2023-03-18T01:00:00;98259.22;;;5.80;83.66
57779;BME280;43608;49.486;9.640;2023-03-18T01:00:30;98270.63;;;5.84;83.70
57779;BME280;43608;49.486;9.640;2023-03-18T01:01:01;98270.66;;;5.85;83.82
57779;BME280;43608;49.486;9.640;2023-03-18T01:01:32;98263.56;;;5.75;83.67
57779;BME280;43608;49.486;9.640;2023-03-18T01:02:03;98264.44;;;5.78;83.71
57779;BME280;43608;49.486;9.640;2023-03-18T01:02:34;98259.16;;;5.72;83.74
57779;BME280;43608;49.486;9.640;2023-03-18T01:03:05;98276.78;;;5.83;83.72
57779;BME280;43608;49.486;9.640;2023-03-18T01:03:35;98209.84;;;5.45;83.47
57779;BME280;43608;49.486;9.640;2023-03-18T01:04:06;98243.31;;;5.68;83.52
57779;BME280;43608;49.486;9.640;2023-03-18T01:04:36;98273.25;;;5.82;83.65
57779;BME280;43608;49.486;9.640;2023-03-18T01:05:07;98261.78;;;5.75;83.67
57779;BME280;43608;49.486;9.640;2023-03-18T01:05:38;98261.78;;;5.75;83.78
57779;BME280;43608;49.486;9.640;2023-03-18T01:06:13;98252.13;;;5.70;83.57
57779;BME280;43608;49.486;9.640;2023-03-18T01:06:44;98238.91;;;5.63;83.81
57779;BME280;43608;49.486;9.640;2023-03-18T01:07:15;98255.63;;;5.70;83.55
57779;BME280;43608;49.486;9.640;2023-03-18T01:07:46;98250.34;;;5.67;83.32
57779;BME280;43608;49.486;9.640;2023-03-18T01:08:16;98251.22;;;5.68;83.22
57779;BME280;43608;49.486;9.640;2023-03-18T01:08:49;98261.75;;;5.71;83.49
57779;BME280;43608;49.486;9.640;2023-03-18T01:09:19;98263.50;;;5.72;83.61
57779;BME280;43608;49.486;9.640;2023-03-18T01:09:50;98252.97;;;5.67;82.85
57779;BME280;43608;49.486;9.640;2023-03-18T01:10:20;98258.25;;;5.69;83.36
57779;BME280;43608;49.486;9.640;2023-03-18T01:10:51;98232.69;;;5.54;83.44
57779;BME280;43608;49.486;9.640;2023-03-18T01:11:22;98266.13;;;5.72;83.73
57779;BME280;43608;49.486;9.640;2023-03-18T01:11:53;98244.97;;;5.56;83.49
57779;BME280;43608;49.486;9.640;2023-03-18T01:12:23;98266.13;;;5.69;83.64
57779;BME280;43608;49.486;9.640;2023-03-18T01:12:55;98236.16;;;5.51;83.77
57779;BME280;43608;49.486;9.640;2023-03-18T01:13:26;98257.31;;;5.62;83.43
57779;BME280;43608;49.486;9.640;2023-03-18T01:13:56;98270.50;;;5.68;83.62
57779;BME280;43608;49.486;9.640;2023-03-18T01:14:28;98256.47;;;5.65;83.66
57779;BME280;43608;49.486;9.640;2023-03-18T01:14:59;98264.34;;;5.65;83.81
57779;BME280;43608;49.486;9.640;2023-03-18T01:15:29;98227.38;;;5.46;83.59
57779;BME280;43608;49.486;9.640;2023-03-18T01:15:59;98256.41;;;5.57;83.89
57779;BME280;43608;49.486;9.640;2023-03-18T01:16:30;98251.13;;;5.57;83.79
57779;BME280;43608;49.486;9.640;2023-03-18T01:17:02;98266.97;;;5.65;83.79
57779;BME280;43608;49.486;9.640;2023-03-18T01:17:32;98266.94;;;5.63;84.00
57779;BME280;43608;49.486;9.640;2023-03-18T01:18:02;98257.25;;;5.56;83.59
57779;BME280;43608;49.486;9.640;2023-03-18T01:18:34;98227.34;;;5.40;83.89
57779;BME280;43608;49.486;9.640;2023-03-18T01:19:04;98259.88;;;5.56;84.02
57779;BME280;43608;49.486;9.640;2023-03-18T01:19:36;98264.28;;;5.57;83.90
57779;BME280;43608;49.486;9.640;2023-03-18T01:20:09;98257.28;;;5.59;84.24
57779;BME280;43608;49.486;9.640;2023-03-18T01:20:40;98253.72;;;5.52;84.05
57779;BME280;43608;49.486;9.640;2023-03-18T01:21:12;98264.28;;;5.58;83.99
57779;BME280;43608;49.486;9.640;2023-03-18T01:21:42;98247.53;;;5.47;83.98
57779;BME280;43608;49.486;9.640;2023-03-18T01:22:14;98258.97;;;5.52;84.08
57779;BME280;43608;49.486;9.640;2023-03-18T01:22:44;98255.47;;;5.53;84.31
57779;BME280;43608;49.486;9.640;2023-03-18T01:23:15;98265.16;;;5.57;84.22
57779;BME280;43608;49.486;9.640;2023-03-18T01:23:46;98257.25;;;5.53;84.25
57779;BME280;43608;49.486;9.640;2023-03-18T01:24:16;98229.97;;;5.40;84.42
57779;BME280;43608;49.486;9.640;2023-03-18T01:24:47;98259.88;;;5.56;84.42
57779;BME280;43608;49.486;9.640;2023-03-18T01:25:17;98259.88;;;5.56;84.31
57779;BME280;43608;49.486;9.640;2023-03-18T01:25:49;98226.41;;;5.35;84.35
57779;BME280;43608;49.486;9.640;2023-03-18T01:26:20;98260.75;;;5.56;84.58
57779;BME280;43608;49.486;9.640;2023-03-18T01:26:51;98229.06;;;5.38;84.47
57779;BME280;43608;49.486;9.640;2023-03-18T01:27:21;98256.38;;;5.55;84.44
57779;BME280;43608;49.486;9.640;2023-03-18T01:27:52;98258.97;;;5.52;84.41
57779;BME280;43608;49.486;9.640;2023-03-18T01:28:23;98259.00;;;5.55;84.54
57779;BME280;43608;49.486;9.640;2023-03-18T01:28:56;98251.91;;;5.45;84.68
57779;BME280;43608;49.486;9.640;2023-03-18T01:29:27;98236.13;;;5.45;84.47
57779;BME280;43608;49.486;9.640;2023-03-18T01:29:57;98238.72;;;5.43;84.57
57779;BME280;43608;49.486;9.640;2023-03-18T01:30:29;98252.00;;;5.54;84.70
57779;BME280;43608;49.486;9.640;2023-03-18T01:30:59;98250.22;;;5.52;84.54
57779;BME280;43608;49.486;9.640;2023-03-18T01:31:30;98251.94;;;5.50;84.46
57779;BME280;43608;49.486;9.640;2023-03-18T01:32:01;98264.28;;;5.57;84.69
57779;BME280;43608;49.486;9.640;2023-03-18T01:32:32;98254.63;;;5.54;84.40
57779;BME280;43608;49.486;9.640;2023-03-18T01:33:04;98255.50;;;5.56;84.62
57779;BME280;43608;49.486;9.640;2023-03-18T01:33:36;98251.06;;;5.51;84.42
57779;BME280;43608;49.486;9.640;2023-03-18T01:34:06;98237.00;;;5.44;84.42
57779;BME280;43608;49.486;9.640;2023-03-18T01:34:36;98249.31;;;5.51;84.71
57779;BME280;43608;49.486;9.640;2023-03-18T01:35:07;98212.34;;;5.29;84.82
57779;BME280;43608;49.486;9.640;2023-03-18T01:35:38;98250.22;;;5.55;84.47
57779;BME280;43608;49.486;9.640;2023-03-18T01:36:08;98259.03;;;5.60;84.67
57779;BME280;43608;49.486;9.640;2023-03-18T01:36:39;98236.13;;;5.45;84.77
57779;BME280;43608;49.486;9.640;2023-03-18T01:37:10;98264.28;;;5.58;84.61
57779;BME280;43608;49.486;9.640;2023-03-18T01:37:40;98239.63;;;5.47;84.50
57779;BME280;43608;49.486;9.640;2023-03-18T01:38:12;98266.94;;;5.61;84.45
57779;BME280;43608;49.486;9.640;2023-03-18T01:38:43;98263.44;;;5.59;84.46
57779;BME280;43608;49.486;9.640;2023-03-18T01:39:14;98263.44;;;5.62;84.61
57779;BME280;43608;49.486;9.640;2023-03-18T01:39:44;98253.75;;;5.55;84.38
57779;BME280;43608;49.486;9.640;2023-03-18T01:40:16;98251.13;;;5.55;84.61
57779;BME280;43608;49.486;9.640;2023-03-18T01:40:46;98262.56;;;5.62;84.57
57779;BME280;43608;49.486;9.640;2023-03-18T01:41:17;98254.63;;;5.56;84.62
57779;BME280;43608;49.486;9.640;2023-03-18T01:41:48;98232.59;;;5.44;84.39
57779;BME280;43608;49.486;9.640;2023-03-18T01:42:19;98256.41;;;5.63;84.59
57779;BME280;43608;49.486;9.640;2023-03-18T01:43:14;98262.56;;;5.63;84.62
57779;BME280;43608;49.486;9.640;2023-03-18T01:43:46;98253.78;;;5.58;84.45
57779;BME280;43608;49.486;9.640;2023-03-18T01:44:22;98259.94;;;5.63;84.36
57779;BME280;43608;49.486;9.640;2023-03-18T01:45:45;98262.53;;;5.60;84.56
57779;BME280;43608;49.486;9.640;2023-03-18T01:46:38;98266.06;;;5.62;84.55
57779;BME280;43608;49.486;9.640;2023-03-18T01:47:09;98258.13;;;5.56;84.62
57779;BME280;43608;49.486;9.640;2023-03-18T01:47:39;98257.25;;;5.56;84.48
57779;BME280;43608;49.486;9.640;2023-03-18T01:48:15;98265.16;;;5.60;84.59
57779;BME280;43608;49.486;9.640;2023-03-18T01:48:47;98252.84;;;5.52;84.56
57779;BME280;43608;49.486;9.640;2023-03-18T01:49:22;98269.56;;;5.61;84.52
57779;BME280;43608;49.486;9.640;2023-03-18T01:49:54;98263.38;;;5.58;84.69
57779;BME280;43608;49.486;9.640;2023-03-18T01:50:27;98268.69;;;5.61;84.40
57779;BME280;43608;49.486;9.640;2023-03-18T01:51:04;98260.81;;;5.61;84.79
57779;BME280;43608;49.486;9.640;2023-03-18T01:51:36;98273.09;;;5.62;84.64
57779;BME280;43608;49.486;9.640;2023-03-18T01:52:16;98251.94;;;5.51;84.57
57779;BME280;43608;49.486;9.640;2023-03-18T01:52:50;98268.69;;;5.62;84.50
57779;BME280;43608;49.486;9.640;2023-03-18T01:53:22;98263.38;;;5.55;84.53
57779;BME280;43608;49.486;9.640;2023-03-18T01:53:53;98271.31;;;5.62;84.51
57779;BME280;43608;49.486;9.640;2023-03-18T01:54:28;98269.56;;;5.63;84.45
57779;BME280;43608;49.486;9.640;2023-03-18T01:55:04;98255.47;;;5.55;84.44
57779;BME280;43608;49.486;9.640;2023-03-18T01:55:36;98266.06;;;5.62;84.35
57779;BME280;43608;49.486;9.640;2023-03-18T01:56:09;98234.38;;;5.44;84.35
57779;BME280;43608;49.486;9.640;2023-03-18T01:56:42;98260.81;;;5.61;84.46
57779;BME280;43608;49.486;9.640;2023-03-18T01:57:14;98259.03;;;5.60;84.42
57779;BME280;43608;49.486;9.640;2023-03-18T01:57:47;98248.50;;;5.55;84.44
57779;BME280;43608;49.486;9.640;2023-03-18T01:58:21;98268.72;;;5.64;84.67
57779;BME280;43608;49.486;9.640;2023-03-18T01:58:55;98260.81;;;5.62;84.53
57779;BME280;43608;49.486;9.640;2023-03-18T01:59:27;98267.84;;;5.62;84.42
57779;BME280;43608;49.486;9.640;2023-03-18T01:59:59;98263.44;;;5.64;84.60
57779;BME280;43608;49.486;9.640;2023-03-18T02:00:31;98272.19;;;5.63;84.68
57779;BME280;43608;49.486;9.640;2023-03-18T02:01:11;98274.88;;;5.65;84.38
57779;BME280;43608;49.486;9.640;2023-03-18T02:01:57;98249.34;;;5.53;84.60
57779;BME280;43608;49.486;9.640;2023-03-18T02:02:28;98274.88;;;5.65;84.26
57779;BME280;43608;49.486;9.640;2023-03-18T02:02:59;98272.22;;;5.65;84.76
57779;BME280;43608;49.486;9.640;2023-03-18T02:03:30;98231.69;;;5.41;84.49
57779;BME280;43608;49.486;9.640;2023-03-18T02:04:05;98268.69;;;5.62;84.43
57779;BME280;43608;49.486;9.640;2023-03-18T02:04:50;98272.25;;;5.66;84.57
57779;BME280;43608;49.486;9.640;2023-03-18T02:05:24;98273.09;;;5.65;84.47
57779;BME280;43608;49.486;9.640;2023-03-18T02:05:55;98272.19;;;5.63;84.41
57779;BME280;43608;49.486;9.640;2023-03-18T02:06:26;98259.88;;;5.56;84.25
57779;BME280;43608;49.486;9.640;2023-03-18T02:06:58;98261.69;;;5.63;84.44
57779;BME280;43608;49.486;9.640;2023-03-18T02:07:31;98271.34;;;5.64;84.53
57779;BME280;43608;49.486;9.640;2023-03-18T02:08:01;98269.56;;;5.63;84.53
57779;BME280;43608;49.486;9.640;2023-03-18T02:08:32;98256.34;;;5.54;84.40
57779;BME280;43608;49.486;9.640;2023-03-18T02:09:03;98271.34;;;5.66;84.74
57779;BME280;43608;49.486;9.640;2023-03-18T02:09:34;98277.50;;;5.66;84.57
57779;BME280;43608;49.486;9.640;2023-03-18T02:10:08;98270.41;;;5.60;84.34
57779;BME280;43608;49.486;9.640;2023-03-18T02:10:40;98254.63;;;5.56;84.54
57779;BME280;43608;49.486;9.640;2023-03-18T02:11:11;98266.09;;;5.66;84.61
57779;BME280;43608;49.486;9.640;2023-03-18T02:11:45;98261.69;;;5.63;84.53
57779;BME280;43608;49.486;9.640;2023-03-18T02:12:28;98274.00;;;5.67;84.70
57779;BME280;43608;49.486;9.640;2023-03-18T02:13:02;98193.91;;;5.26;84.67
57779;BME280;43608;49.486;9.640;2023-03-18T02:13:43;98275.75;;;5.68;84.72
57779;BME280;43608;49.486;9.640;2023-03-18T02:14:15;98257.28;;;5.60;84.65
57779;BME280;43608;49.486;9.640;2023-03-18T02:14:50;98260.81;;;5.61;84.61
57779;BME280;43608;49.486;9.640;2023-03-18T02:15:22;98268.75;;;5.69;84.68
57779;BME280;43608;49.486;9.640;2023-03-18T02:16:21;98266.09;;;5.66;84.68
57779;BME280;43608;49.486;9.640;2023-03-18T02:16:58;98270.50;;;5.68;84.68
57779;BME280;43608;49.486;9.640;2023-03-18T02:17:32;98266.94;;;5.61;84.31
57779;BME280;43608;49.486;9.640;2023-03-18T02:18:08;98268.72;;;5.64;84.50
57779;BME280;43608;49.486;9.640;2023-03-18T02:18:46;98274.03;;;5.70;84.37
57779;BME280;43608;49.486;9.640;2023-03-18T02:20:33;98253.78;;;5.58;84.50
57779;BME280;43608;49.486;9.640;2023-03-18T02:21:45;98278.41;;;5.70;84.42
57779;BME280;43608;49.486;9.640;2023-03-18T02:22:27;98277.50;;;5.69;84.46
57779;BME280;43608;49.486;9.640;2023-03-18T02:25:49;98276.66;;;5.69;84.37
57779;BME280;43608;49.486;9.640;2023-03-18T02:27:43;98262.50;;;5.57;84.31
57779;BME280;43608;49.486;9.640;2023-03-18T02:28:18;98280.16;;;5.69;84.48
57779;BME280;43608;49.486;9.640;2023-03-18T02:28:53;98266.06;;;5.59;84.34
57779;BME280;43608;49.486;9.640;2023-03-18T02:29:35;98274.81;;;5.63;84.57
57779;BME280;43608;49.486;9.640;2023-03-18T02:30:13;98275.75;;;5.68;84.48
57779;BME280;43608;49.486;9.640;2023-03-18T02:30:48;98263.44;;;5.61;84.48
57779;BME280;43608;49.486;9.640;2023-03-18T02:31:20;98261.59;;;5.54;84.66
57779;BME280;43608;49.486;9.640;2023-03-18T02:31:51;98251.06;;;5.52;84.46
57779;BME280;43608;49.486;9.640;2023-03-18T02:32:26;98274.88;;;5.68;84.86
57779;BME280;43608;49.486;9.640;2023-03-18T02:32:58;98267.84;;;5.62;84.53
57779;BME280;43608;49.486;9.640;2023-03-18T02:33:33;98271.34;;;5.64;84.81
57779;BME280;43608;49.486;9.640;2023-03-18T02:34:05;98281.00;;;5.65;84.73
57779;BME280;43608;49.486;9.640;2023-03-18T02:34:37;98281.00;;;5.67;84.74
57779;BME280;43608;49.486;9.640;2023-03-18T02:35:10;98287.16;;;5.67;84.51
57779;BME280;43608;49.486;9.640;2023-03-18T02:35:45;98268.63;;;5.56;84.71
57779;BME280;43608;49.486;9.640;2023-03-18T02:36:19;98282.75;;;5.68;84.70
57779;BME280;43608;49.486;9.640;2023-03-18T02:36:51;98266.91;;;5.57;84.59
57779;BME280;43608;49.486;9.640;2023-03-18T02:37:21;98267.75;;;5.54;84.55
57779;BME280;43608;49.486;9.640;2023-03-18T02:37:52;98268.63;;;5.56;84.59
57779;BME280;43608;49.486;9.640;2023-03-18T02:38:22;98273.03;;;5.59;84.59
57779;BME280;43608;49.486;9.640;2023-03-18T02:38:53;98281.84;;;5.66;84.54
57779;BME280;43608;49.486;9.640;2023-03-18T02:39:24;98284.47;;;5.64;84.71
57779;BME280;43608;49.486;9.640;2023-03-18T02:39:54;98276.59;;;5.62;84.69
57779;BME280;43608;49.486;9.640;2023-03-18T02:40:32;98279.22;;;5.66;84.59
57779;BME280;43608;49.486;9.640;2023-03-18T02:41:02;98273.03;;;5.57;84.80
57779;BME280;43608;49.486;9.640;2023-03-18T02:41:34;98276.59;;;5.64;84.55
57779;BME280;43608;49.486;9.640;2023-03-18T02:42:05;98266.00;;;5.55;84.65
57779;BME280;43608;49.486;9.640;2023-03-18T02:42:35;98276.56;;;5.59;84.42
57779;BME280;43608;49.486;9.640;2023-03-18T02:43:49;98284.47;;;5.62;84.43
57779;BME280;43608;49.486;9.640;2023-03-18T02:44:19;98260.66;;;5.45;84.52
57779;BME280;43608;49.486;9.640;2023-03-18T02:44:50;98287.09;;;5.62;84.49
57779;BME280;43608;49.486;9.640;2023-03-18T02:45:49;98283.56;;;5.59;84.68
57779;BME280;43608;49.486;9.640;2023-03-18T02:46:40;98288.81;;;5.60;84.65
57779;BME280;43608;49.486;9.640;2023-03-18T02:47:19;98287.03;;;5.58;84.46
57779;BME280;43608;49.486;9.640;2023-03-18T02:47:51;98274.72;;;5.49;84.67
57779;BME280;43608;49.486;9.640;2023-03-18T02:48:23;98281.78;;;5.55;84.70
57779;BME280;43608;49.486;9.640;2023-03-18T02:48:58;98282.66;;;5.55;84.47
57779;BME280;43608;49.486;9.640;2023-03-18T02:49:29;98280.00;;;5.54;84.58
57779;BME280;43608;49.486;9.640;2023-03-18T02:50:00;98275.66;;;5.54;84.73
57779;BME280;43608;49.486;9.640;2023-03-18T02:50:32;98272.09;;;5.48;84.84
57779;BME280;43608;49.486;9.640;2023-03-18T02:51:05;98282.63;;;5.54;84.50
57779;BME280;43608;49.486;9.640;2023-03-18T02:51:36;98277.34;;;5.48;84.71
57779;BME280;43608;49.486;9.640;2023-03-18T02:52:07;98278.25;;;5.53;84.55
57779;BME280;43608;49.486;9.640;2023-03-18T02:52:37;98282.63;;;5.51;84.52
57779;BME280;43608;49.486;9.640;2023-03-18T02:53:11;98287.94;;;5.57;84.57
57779;BME280;43608;49.486;9.640;2023-03-18T02:53:43;98283.47;;;5.51;84.78
57779;BME280;43608;49.486;9.640;2023-03-18T02:54:17;98280.78;;;5.43;84.80
57779;BME280;43608;49.486;9.640;2023-03-18T02:54:48;98289.66;;;5.53;84.87
57779;BME280;43608;49.486;9.640;2023-03-18T02:55:18;98279.97;;;5.48;84.55
57779;BME280;43608;49.486;9.640;2023-03-18T02:55:49;98282.63;;;5.51;84.79
57779;BME280;43608;49.486;9.640;2023-03-18T02:56:20;98272.91;;;5.43;84.37
57779;BME280;43608;49.486;9.640;2023-03-18T02:56:51;98297.53;;;5.53;84.86
57779;BME280;43608;49.486;9.640;2023-03-18T02:57:21;98288.75;;;5.51;84.96
57779;BME280;43608;49.486;9.640;2023-03-18T02:57:52;98291.34;;;5.50;84.81
57779;BME280;43608;49.486;9.640;2023-03-18T02:58:22;98231.44;;;5.13;85.11
57779;BME280;43608;49.486;9.640;2023-03-18T02:58:52;98268.47;;;5.38;84.69
57779;BME280;43608;49.486;9.640;2023-03-18T02:59:23;98291.38;;;5.51;84.88
57779;BME280;43608;49.486;9.640;2023-03-18T02:59:54;98265.84;;;5.38;84.98
57779;BME280;43608;49.486;9.640;2023-03-18T03:00:25;98291.34;;;5.48;85.03
57779;BME280;43608;49.486;9.640;2023-03-18T03:00:55;98266.69;;;5.35;85.04
57779;BME280;43608;49.486;9.640;2023-03-18T03:01:27;98272.84;;;5.37;85.16